Time,TemperatureF,DewpointF,PressureIn,WindDirection,WindDirectionDegrees,WindSpeedMPH,WindSpeedGustMPH,Humidity,HourlyPrecipIn,Conditions,Clouds,dailyrainin,SoftwareType,DateUTC
2013-04-09 00:03:00,60.2,56.0,29.84,SE,146,6.0,11.0,86,0.00,,---,0.00,VWS V14.00,2013-04-09 05:03:00,
2013-04-09 00:09:00,60.2,56.0,29.84,SE,146,5.0,7.0,86,0.00,,---,0.00,VWS V14.00,2013-04-09 05:09:00,
2013-04-09 00:14:00,60.4,55.9,29.84,SE,146,5.0,6.0,85,0.00,,---,0.00,VWS V14.00,2013-04-09 05:14:00,
2013-04-09 00:19:00,60.4,55.9,29.85,SE,146,5.0,6.0,85,0.00,,---,0.00,VWS V14.00,2013-04-09 05:19:00,
2013-04-09 00:24:00,60.5,56.0,29.85,SE,146,9.0,9.0,85,0.00,,---,0.00,VWS V14.00,2013-04-09 05:24:00,
2013-04-09 00:29:00,60.7,55.8,29.85,SE,142,10.0,13.0,84,0.00,,---,0.00,VWS V14.00,2013-04-09 05:29:00,
2013-04-09 00:34:00,61.0,55.8,29.83,SE,144,8.0,11.0,83,0.00,,---,0.00,VWS V14.00,2013-04-09 05:34:00,
2013-04-09 00:39:00,61.2,56.0,29.83,SE,146,7.0,9.0,83,0.00,,---,0.00,VWS V14.00,2013-04-09 05:39:00,
2013-04-09 00:44:00,61.3,55.8,29.83,SSE,147,8.0,10.0,82,0.00,,---,0.00,VWS V14.00,2013-04-09 05:44:00,
2013-04-09 00:49:00,61.5,55.6,29.84,SSE,149,4.0,10.0,81,0.00,,---,0.00,VWS V14.00,2013-04-09 05:49:00,
2013-04-09 00:54:00,61.3,55.4,29.84,SSE,155,11.0,11.0,81,0.00,,---,0.00,VWS V14.00,2013-04-09 05:54:00,
2013-04-09 00:59:00,61.3,55.4,29.84,SSE,160,9.0,10.0,81,0.00,,---,0.00,VWS V14.00,2013-04-09 05:59:00,
2013-04-09 01:04:00,61.2,55.3,29.84,SSE,160,7.0,10.0,81,0.00,,---,0.00,VWS V14.00,2013-04-09 06:04:00,
2013-04-09 01:09:00,60.9,55.0,29.84,SSE,160,5.0,9.0,81,0.00,,---,0.00,VWS V14.00,2013-04-09 06:09:00,
2013-04-09 01:14:00,60.5,55.0,29.84,SSE,160,5.0,6.0,82,0.00,,---,0.00,VWS V14.00,2013-04-09 06:14:00,
2013-04-09 01:20:00,59.9,54.7,29.84,SSE,160,5.0,6.0,83,0.00,,---,0.00,VWS V14.00,2013-04-09 06:20:00,
2013-04-09 01:25:00,59.6,54.4,29.84,SSE,160,4.0,5.0,83,0.00,,---,0.00,VWS V14.00,2013-04-09 06:25:00,
2013-04-09 01:30:00,59.0,54.2,29.83,SSE,160,4.0,5.0,84,0.00,,---,0.00,VWS V14.00,2013-04-09 06:30:00,
2013-04-09 01:35:00,58.9,54.4,29.83,SSE,160,4.0,4.0,85,0.00,,---,0.00,VWS V14.00,2013-04-09 06:35:00,
2013-04-09 01:40:00,58.9,54.4,29.83,SSE,160,6.0,6.0,85,0.00,,---,0.00,VWS V14.00,2013-04-09 06:40:00,
2013-04-09 01:45:00,58.9,54.7,29.83,SSE,158,6.0,6.0,86,0.00,,---,0.00,VWS V14.00,2013-04-09 06:45:00,
2013-04-09 01:50:00,59.2,55.0,29.83,SSE,158,5.0,6.0,86,0.00,,---,0.00,VWS V14.00,2013-04-09 06:50:00,
2013-04-09 01:55:00,59.2,55.0,29.83,SSE,157,5.0,7.0,86,0.00,,---,0.00,VWS V14.00,2013-04-09 06:55:00,
2013-04-09 02:00:00,59.0,54.8,29.83,SSE,154,6.0,7.0,86,0.00,,---,0.00,VWS V14.00,2013-04-09 07:00:00,
2013-04-09 02:05:00,58.7,54.5,29.83,SSE,153,3.0,4.0,86,0.00,,---,0.00,VWS V14.00,2013-04-09 07:05:00,
2013-04-09 02:10:00,58.4,54.2,29.83,SSE,153,4.0,4.0,86,0.00,,---,0.00,VWS V14.00,2013-04-09 07:10:00,
2013-04-09 02:15:00,58.0,53.8,29.83,SSE,153,5.0,5.0,86,0.00,,---,0.00,VWS V14.00,2013-04-09 07:15:00,
2013-04-09 02:21:00,57.3,53.5,29.83,SSE,153,4.0,5.0,87,0.00,,---,0.00,VWS V14.00,2013-04-09 07:21:00,
2013-04-09 02:26:00,57.3,53.8,29.83,SSE,153,1.0,3.0,88,0.00,,---,0.00,VWS V14.00,2013-04-09 07:26:00,
2013-04-09 02:31:00,57.0,53.5,29.82,SSE,153,2.0,3.0,88,0.00,,---,0.00,VWS V14.00,2013-04-09 07:31:00,
2013-04-09 02:37:00,56.9,53.4,29.82,SSE,150,5.0,6.0,88,0.00,,---,0.00,VWS V14.00,2013-04-09 07:37:00,
2013-04-09 02:42:00,56.6,53.4,29.82,SSE,148,6.0,6.0,89,0.00,,---,0.00,VWS V14.00,2013-04-09 07:42:00,
2013-04-09 02:47:00,56.6,53.4,29.81,SE,145,6.0,6.0,89,0.00,,---,0.00,VWS V14.00,2013-04-09 07:47:00,
2013-04-09 02:52:00,56.7,53.8,29.81,SE,144,6.0,7.0,90,0.00,,---,0.00,VWS V14.00,2013-04-09 07:52:00,
2013-04-09 02:57:00,57.0,54.4,29.81,SE,137,8.0,10.0,91,0.00,,---,0.00,VWS V14.00,2013-04-09 07:57:00,
2013-04-09 03:02:00,57.6,55.3,29.81,SE,132,7.0,8.0,92,0.00,,---,0.00,VWS V14.00,2013-04-09 08:02:00,
2013-04-09 03:07:00,58.3,55.7,29.81,SE,130,7.0,7.0,91,0.00,,---,0.00,VWS V14.00,2013-04-09 08:07:00,
2013-04-09 03:12:00,58.6,56.0,29.81,SE,130,8.0,8.0,91,0.00,,---,0.00,VWS V14.00,2013-04-09 08:12:00,
2013-04-09 03:17:00,59.0,55.8,29.81,SE,129,8.0,10.0,89,0.00,,---,0.00,VWS V14.00,2013-04-09 08:17:00,
2013-04-09 03:22:00,59.3,56.1,29.81,SE,128,11.0,11.0,89,0.00,,---,0.00,VWS V14.00,2013-04-09 08:22:00,
2013-04-09 03:27:00,59.5,56.0,29.81,SE,128,7.0,12.0,88,0.00,,---,0.00,VWS V14.00,2013-04-09 08:27:00,
2013-04-09 03:32:00,59.5,56.0,29.81,SE,128,7.0,7.0,88,0.00,,---,0.00,VWS V14.00,2013-04-09 08:32:00,
2013-04-09 03:37:00,59.3,55.8,29.81,SE,126,9.0,11.0,88,0.00,,---,0.00,VWS V14.00,2013-04-09 08:37:00,
2013-04-09 03:42:00,59.6,55.7,29.81,SE,127,8.0,11.0,87,0.00,,---,0.00,VWS V14.00,2013-04-09 08:42:00,
2013-04-09 03:47:00,59.8,55.9,29.81,SE,127,11.0,12.0,87,0.00,,---,0.00,VWS V14.00,2013-04-09 08:47:00,
2013-04-09 03:52:00,59.8,55.9,29.81,SE,128,8.0,10.0,87,0.00,,---,0.00,VWS V14.00,2013-04-09 08:52:00,
2013-04-09 03:57:00,59.9,55.7,29.81,SE,128,10.0,12.0,86,0.00,,---,0.00,VWS V14.00,2013-04-09 08:57:00,
2013-04-09 04:02:00,59.9,55.7,29.81,SE,128,11.0,12.0,86,0.00,,---,0.00,VWS V14.00,2013-04-09 09:02:00,
2013-04-09 04:07:00,59.9,55.7,29.81,SE,128,7.0,7.0,86,0.00,,---,0.00,VWS V14.00,2013-04-09 09:07:00,
2013-04-09 04:12:00,59.9,55.7,29.81,SE,128,7.0,7.0,86,0.00,,---,0.00,VWS V14.00,2013-04-09 09:12:00,
2013-04-09 04:18:00,59.9,55.7,29.81,SE,130,11.0,11.0,86,0.00,,---,0.00,VWS V14.00,2013-04-09 09:18:00,
2013-04-09 04:23:00,59.9,55.7,29.81,SE,127,11.0,12.0,86,0.00,,---,0.00,VWS V14.00,2013-04-09 09:23:00,
2013-04-09 04:28:00,59.9,55.4,29.81,SE,126,11.0,11.0,85,0.00,,---,0.00,VWS V14.00,2013-04-09 09:28:00,
2013-04-09 04:33:00,60.1,55.6,29.81,SE,126,10.0,13.0,85,0.00,,---,0.00,VWS V14.00,2013-04-09 09:33:00,
2013-04-09 04:38:00,60.1,55.6,29.81,SE,126,9.0,12.0,85,0.00,,---,0.00,VWS V14.00,2013-04-09 09:38:00,
2013-04-09 04:43:00,60.1,55.6,29.81,SE,126,12.0,12.0,85,0.00,,---,0.00,VWS V14.00,2013-04-09 09:43:00,
2013-04-09 04:48:00,60.1,55.6,29.81,SE,126,10.0,10.0,85,0.00,,---,0.00,VWS V14.00,2013-04-09 09:48:00,
2013-04-09 04:53:00,60.1,55.6,29.81,SE,126,6.0,6.0,85,0.00,,---,0.00,VWS V14.00,2013-04-09 09:53:00,
2013-04-09 04:58:00,60.2,55.7,29.81,SE,126,8.0,12.0,85,0.00,,---,0.00,VWS V14.00,2013-04-09 09:58:00,
2013-04-09 05:03:00,60.2,55.7,29.80,SE,126,8.0,11.0,85,0.00,,---,0.00,VWS V14.00,2013-04-09 10:03:00,
2013-04-09 05:09:00,60.2,55.3,29.80,SE,126,7.0,10.0,84,0.00,,---,0.00,VWS V14.00,2013-04-09 10:09:00,
2013-04-09 05:14:00,60.2,55.3,29.80,SE,126,7.0,10.0,84,0.00,,---,0.00,VWS V14.00,2013-04-09 10:14:00,
2013-04-09 05:19:00,60.2,55.3,29.81,SE,126,8.0,9.0,84,0.00,,---,0.00,VWS V14.00,2013-04-09 10:19:00,
2013-04-09 05:24:00,60.4,55.5,29.81,SE,127,8.0,10.0,84,0.00,,---,0.00,VWS V14.00,2013-04-09 10:24:00,
2013-04-09 05:29:00,60.2,55.3,29.81,SE,127,10.0,10.0,84,0.00,,---,0.00,VWS V14.00,2013-04-09 10:29:00,
2013-04-09 05:35:00,60.4,55.5,29.81,SE,130,10.0,13.0,84,0.00,,---,0.00,VWS V14.00,2013-04-09 10:35:00,
2013-04-09 05:40:00,60.4,55.5,29.81,SE,128,9.0,11.0,84,0.00,,---,0.00,VWS V14.00,2013-04-09 10:40:00,
2013-04-09 05:45:00,60.4,55.2,29.81,SE,129,13.0,13.0,83,0.00,,---,0.00,VWS V14.00,2013-04-09 10:45:00,
2013-04-09 05:50:00,60.4,55.2,29.81,SE,131,12.0,12.0,83,0.00,,---,0.00,VWS V14.00,2013-04-09 10:50:00,
2013-04-09 05:55:00,60.4,55.2,29.81,SE,130,12.0,12.0,83,0.00,,---,0.00,VWS V14.00,2013-04-09 10:55:00,
2013-04-09 06:00:00,60.4,55.2,29.82,SE,132,10.0,14.0,83,0.00,,---,0.00,VWS V14.00,2013-04-09 11:00:00,
2013-04-09 06:05:00,60.4,55.2,29.82,SE,135,10.0,11.0,83,0.00,,---,0.00,VWS V14.00,2013-04-09 11:05:00,
2013-04-09 06:10:00,60.4,55.2,29.82,SE,131,10.0,14.0,83,0.00,,---,0.00,VWS V14.00,2013-04-09 11:10:00,
2013-04-09 06:15:00,60.2,55.0,29.82,SE,130,10.0,11.0,83,0.00,,---,0.00,VWS V14.00,2013-04-09 11:15:00,
2013-04-09 06:20:00,60.2,55.0,29.82,SE,129,12.0,13.0,83,0.00,,---,0.00,VWS V14.00,2013-04-09 11:20:00,
2013-04-09 06:25:00,60.2,55.0,29.82,SE,130,12.0,12.0,83,0.00,,---,0.00,VWS V14.00,2013-04-09 11:25:00,
2013-04-09 06:30:00,60.4,55.2,29.82,SE,132,11.0,12.0,83,0.00,,---,0.00,VWS V14.00,2013-04-09 11:30:00,
2013-04-09 06:36:00,60.4,55.2,29.82,SE,131,10.0,13.0,83,0.00,,---,0.00,VWS V14.00,2013-04-09 11:36:00,
2013-04-09 06:41:00,60.4,55.2,29.82,SE,132,12.0,16.0,83,0.00,,---,0.00,VWS V14.00,2013-04-09 11:41:00,
2013-04-09 06:46:00,60.5,55.3,29.82,SE,129,13.0,15.0,83,0.00,,---,0.00,VWS V14.00,2013-04-09 11:46:00,
2013-04-09 06:51:00,60.4,55.2,29.82,SE,128,11.0,17.0,83,0.00,,---,0.00,VWS V14.00,2013-04-09 11:51:00,
2013-04-09 06:56:00,60.4,55.2,29.82,SE,128,14.0,14.0,83,0.00,,---,0.00,VWS V14.00,2013-04-09 11:56:00,
2013-04-09 07:01:00,60.2,55.0,29.82,SE,129,11.0,14.0,83,0.00,,---,0.00,VWS V14.00,2013-04-09 12:01:00,
2013-04-09 07:06:00,60.5,55.3,29.82,SE,131,13.0,16.0,83,0.00,,---,0.00,VWS V14.00,2013-04-09 12:06:00,
2013-04-09 07:11:00,60.5,55.3,29.82,SE,130,13.0,13.0,83,0.00,,---,0.00,VWS V14.00,2013-04-09 12:11:00,
2013-04-09 07:16:00,61.0,55.5,29.82,SE,136,13.0,15.0,82,0.00,,---,0.00,VWS V14.00,2013-04-09 12:16:00,
2013-04-09 07:21:00,61.0,55.5,29.82,SE,140,15.0,15.0,82,0.00,,---,0.00,VWS V14.00,2013-04-09 12:21:00,
2013-04-09 07:27:00,61.2,55.7,29.82,SE,137,11.0,14.0,82,0.00,,---,0.00,VWS V14.00,2013-04-09 12:27:00,
2013-04-09 07:32:00,61.2,55.7,29.82,SE,138,18.0,18.0,82,0.00,,---,0.00,VWS V14.00,2013-04-09 12:32:00,
2013-04-09 07:37:00,61.3,55.4,29.82,SE,138,14.0,17.0,81,0.00,,---,0.00,VWS V14.00,2013-04-09 12:37:00,
2013-04-09 07:42:00,61.5,55.6,29.82,SE,136,15.0,15.0,81,0.00,,---,0.00,VWS V14.00,2013-04-09 12:42:00,
2013-04-09 07:47:00,62.0,56.1,29.81,SE,139,15.0,16.0,81,0.00,,---,0.00,VWS V14.00,2013-04-09 12:47:00,
2013-04-09 07:52:00,62.3,56.1,29.81,SE,142,16.0,17.0,80,0.00,,---,0.00,VWS V14.00,2013-04-09 12:52:00,
2013-04-09 07:57:00,62.7,56.5,29.81,SSE,147,18.0,18.0,80,0.00,,---,0.00,VWS V14.00,2013-04-09 12:57:00,
2013-04-09 08:03:00,63.5,56.5,29.81,SSE,149,17.0,19.0,78,0.00,,---,0.00,VWS V14.00,2013-04-09 13:03:00,
2013-04-09 08:08:00,63.9,56.2,29.81,SSE,152,23.0,23.0,76,0.00,,---,0.00,VWS V14.00,2013-04-09 13:08:00,
2013-04-09 08:13:00,63.9,55.8,29.81,SSE,148,21.0,21.0,75,0.00,,---,0.00,VWS V14.00,2013-04-09 13:13:00,
2013-04-09 08:18:00,64.0,55.6,29.81,SSE,157,16.0,19.0,74,0.00,,---,0.00,VWS V14.00,2013-04-09 13:18:00,
2013-04-09 08:23:00,64.0,55.9,29.81,SSE,154,15.0,22.0,75,0.00,,---,0.00,VWS V14.00,2013-04-09 13:23:00,
2013-04-09 08:28:00,64.0,55.9,29.81,SE,146,18.0,19.0,75,0.00,,---,0.00,VWS V14.00,2013-04-09 13:28:00,
2013-04-09 08:33:00,64.2,56.1,29.80,SE,146,15.0,18.0,75,0.00,,---,0.00,VWS V14.00,2013-04-09 13:33:00,
2013-04-09 08:38:00,64.3,56.2,29.80,SSE,149,17.0,17.0,75,0.00,,---,0.00,VWS V14.00,2013-04-09 13:38:00,
2013-04-09 08:43:00,64.3,56.2,29.80,SSE,149,17.0,17.0,75,0.00,,---,0.00,VWS V14.00,2013-04-09 13:43:00,
2013-04-09 08:48:00,65.0,56.5,29.80,SSE,163,14.0,18.0,74,0.00,,---,0.00,VWS V14.00,2013-04-09 13:48:00,
2013-04-09 08:53:00,65.5,57.0,29.80,SSE,163,15.0,15.0,74,0.00,,---,0.00,VWS V14.00,2013-04-09 13:53:00,
2013-04-09 08:58:00,66.1,57.2,29.80,SSE,159,13.0,17.0,73,0.00,,---,0.00,VWS V14.00,2013-04-09 13:58:00,
2013-04-09 09:04:00,66.8,57.5,29.79,SSE,165,11.0,14.0,72,0.00,,---,0.00,VWS V14.00,2013-04-09 14:04:00,
2013-04-09 09:09:00,67.3,57.6,29.79,SSE,163,16.0,22.0,71,0.00,,---,0.00,VWS V14.00,2013-04-09 14:09:00,
2013-04-09 09:14:00,67.6,57.1,29.79,SSE,159,19.0,21.0,69,0.00,,---,0.00,VWS V14.00,2013-04-09 14:14:00,
2013-04-09 09:19:00,67.8,57.3,29.80,SSE,166,14.0,24.0,69,0.00,,---,0.00,VWS V14.00,2013-04-09 14:19:00,
2013-04-09 09:24:00,68.1,57.6,29.80,South,176,14.0,17.0,69,0.00,,---,0.00,VWS V14.00,2013-04-09 14:24:00,
2013-04-09 09:29:00,68.4,57.8,29.80,South,174,14.0,16.0,69,0.00,,---,0.00,VWS V14.00,2013-04-09 14:29:00,
2013-04-09 09:34:00,69.1,57.7,29.80,South,178,17.0,22.0,67,0.00,,---,0.00,VWS V14.00,2013-04-09 14:34:00,
2013-04-09 09:40:00,69.3,57.9,29.80,South,173,18.0,20.0,67,0.00,,---,0.00,VWS V14.00,2013-04-09 14:40:00,
2013-04-09 09:45:00,69.8,57.9,29.80,South,185,18.0,21.0,66,0.00,,---,0.00,VWS V14.00,2013-04-09 14:45:00,
2013-04-09 09:50:00,70.1,57.8,29.80,South,182,21.0,21.0,65,0.00,,---,0.00,VWS V14.00,2013-04-09 14:50:00,
2013-04-09 09:55:00,70.1,57.8,29.80,South,182,21.0,21.0,65,0.00,,---,0.00,VWS V14.00,2013-04-09 14:55:00,
2013-04-09 10:00:00,70.3,57.6,29.79,South,178,22.0,34.0,64,0.00,,---,0.00,VWS V14.00,2013-04-09 15:00:00,
2013-04-09 10:05:00,70.1,58.2,29.79,South,180,20.0,29.0,66,0.00,,---,0.00,VWS V14.00,2013-04-09 15:05:00,
2013-04-09 10:10:00,70.4,58.5,29.79,SSE,163,21.0,24.0,66,0.00,,---,0.00,VWS V14.00,2013-04-09 15:10:00,
2013-04-09 10:15:00,71.1,58.3,29.80,South,170,20.0,31.0,64,0.00,,---,0.00,VWS V14.00,2013-04-09 15:15:00,
2013-04-09 10:20:00,71.8,58.5,29.80,SSW,195,20.0,29.0,63,0.00,,---,0.00,VWS V14.00,2013-04-09 15:20:00,
2013-04-09 10:25:00,72.7,58.5,29.80,SSE,159,19.0,27.0,61,0.00,,---,0.00,VWS V14.00,2013-04-09 15:25:00,
2013-04-09 10:31:00,72.1,58.4,29.79,SSW,192,27.0,28.0,62,0.00,,---,0.00,VWS V14.00,2013-04-09 15:31:00,
2013-04-09 10:36:00,71.8,58.1,29.79,South,180,29.0,33.0,62,0.00,,---,0.00,VWS V14.00,2013-04-09 15:36:00,
2013-04-09 10:41:00,71.3,58.1,29.79,South,183,30.0,33.0,63,0.00,,---,0.00,VWS V14.00,2013-04-09 15:41:00,
2013-04-09 10:46:00,71.1,57.9,29.79,South,178,24.0,24.0,63,0.00,,---,0.00,VWS V14.00,2013-04-09 15:46:00,
2013-04-09 10:52:00,71.5,57.8,29.79,South,191,29.0,38.0,62,0.00,,---,0.00,VWS V14.00,2013-04-09 15:52:00,
2013-04-09 10:57:00,71.3,58.1,29.79,South,182,29.0,30.0,63,0.00,,---,0.00,VWS V14.00,2013-04-09 15:57:00,
2013-04-09 11:02:00,71.1,58.3,29.79,South,188,26.0,29.0,64,0.00,,---,0.00,VWS V14.00,2013-04-09 16:02:00,
2013-04-09 11:07:00,71.3,58.1,29.79,South,177,27.0,27.0,63,0.00,,---,0.00,VWS V14.00,2013-04-09 16:07:00,
2013-04-09 11:12:00,71.5,57.8,29.79,South,183,27.0,28.0,62,0.00,,---,0.00,VWS V14.00,2013-04-09 16:12:00,
2013-04-09 11:17:00,71.8,57.6,29.78,South,182,31.0,34.0,61,0.00,,---,0.00,VWS V14.00,2013-04-09 16:17:00,
2013-04-09 11:22:00,73.0,58.3,29.78,South,184,33.0,33.0,60,0.00,,---,0.00,VWS V14.00,2013-04-09 16:22:00,
2013-04-09 11:27:00,74.0,57.3,29.78,South,183,29.0,30.0,56,0.00,,---,0.00,VWS V14.00,2013-04-09 16:27:00,
2013-04-09 11:32:00,73.5,56.9,29.78,SSW,207,30.0,35.0,56,0.00,,---,0.00,VWS V14.00,2013-04-09 16:32:00,
2013-04-09 11:37:00,73.3,57.2,29.78,SSW,197,20.0,32.0,57,0.00,,---,0.00,VWS V14.00,2013-04-09 16:37:00,
2013-04-09 11:42:00,73.7,57.0,29.78,South,191,27.0,31.0,56,0.00,,---,0.00,VWS V14.00,2013-04-09 16:42:00,
2013-04-09 11:47:00,73.2,56.6,29.78,South,188,28.0,28.0,56,0.00,,---,0.00,VWS V14.00,2013-04-09 16:47:00,
2013-04-09 11:52:00,73.5,57.3,29.78,SSW,196,29.0,34.0,57,0.00,,---,0.00,VWS V14.00,2013-04-09 16:52:00,
2013-04-09 11:58:00,73.9,58.2,29.78,South,189,33.0,33.0,58,0.00,,---,0.00,VWS V14.00,2013-04-09 16:58:00,
2013-04-09 12:03:00,73.9,58.2,29.78,SSW,207,25.0,25.0,58,0.00,,---,0.00,VWS V14.00,2013-04-09 17:03:00,
2013-04-09 12:08:00,74.7,57.5,29.78,South,182,28.0,28.0,55,0.00,,---,0.00,VWS V14.00,2013-04-09 17:08:00,
2013-04-09 12:13:00,74.7,58.0,29.78,SSW,205,26.0,33.0,56,0.00,,---,0.00,VWS V14.00,2013-04-09 17:13:00,
2013-04-09 12:18:00,73.9,58.2,29.79,SSW,205,23.0,30.0,58,0.00,,---,0.00,VWS V14.00,2013-04-09 17:18:00,
2013-04-09 12:23:00,73.5,57.8,29.79,SSW,193,33.0,34.0,58,0.00,,---,0.00,VWS V14.00,2013-04-09 17:23:00,
2013-04-09 12:28:00,72.8,57.7,29.79,SSW,205,27.0,32.0,59,0.00,,---,0.00,VWS V14.00,2013-04-09 17:28:00,
2013-04-09 12:33:00,72.8,58.1,29.79,SSW,208,25.0,25.0,60,0.00,,---,0.00,VWS V14.00,2013-04-09 17:33:00,
2013-04-09 12:38:00,72.5,58.3,29.79,South,181,17.0,27.0,61,0.00,,---,0.00,VWS V14.00,2013-04-09 17:38:00,
2013-04-09 12:43:00,72.5,58.3,29.79,SSW,197,23.0,31.0,61,0.00,,---,0.00,VWS V14.00,2013-04-09 17:43:00,
2013-04-09 12:48:00,72.7,58.5,29.79,SSW,202,24.0,32.0,61,0.00,,---,0.00,VWS V14.00,2013-04-09 17:48:00,
2013-04-09 12:53:00,73.0,58.8,29.79,South,182,20.0,23.0,61,0.00,,---,0.00,VWS V14.00,2013-04-09 17:53:00,
2013-04-09 12:59:00,73.5,57.3,29.79,SW,215,17.0,30.0,57,0.00,,---,0.00,VWS V14.00,2013-04-09 17:59:00,
2013-04-09 13:04:00,73.5,57.8,29.78,SSW,193,26.0,26.0,58,0.00,,---,0.00,VWS V14.00,2013-04-09 18:04:00,
2013-04-09 13:09:00,73.9,57.2,29.78,SW,219,20.0,29.0,56,0.00,,---,0.00,VWS V14.00,2013-04-09 18:09:00,
2013-04-09 13:14:00,75.3,57.5,29.78,SSW,209,19.0,28.0,54,0.00,,---,0.00,VWS V14.00,2013-04-09 18:14:00,
2013-04-09 13:20:00,76.7,57.8,29.77,SSW,202,22.0,30.0,52,0.00,,---,0.00,VWS V14.00,2013-04-09 18:20:00,
2013-04-09 13:25:00,76.3,57.4,29.77,SSW,194,25.0,25.0,52,0.00,,---,0.00,VWS V14.00,2013-04-09 18:25:00,
2013-04-09 13:30:00,76.8,58.4,29.76,SSW,203,29.0,32.0,53,0.00,,---,0.00,VWS V14.00,2013-04-09 18:30:00,
2013-04-09 13:35:00,76.3,57.9,29.76,SW,215,27.0,30.0,53,0.00,,---,0.00,VWS V14.00,2013-04-09 18:35:00,
2013-04-09 13:41:00,76.5,57.6,29.76,SW,224,29.0,31.0,52,0.00,,---,0.00,VWS V14.00,2013-04-09 18:41:00,
2013-04-09 13:46:00,77.0,58.0,29.76,SSW,207,29.0,31.0,52,0.00,,---,0.00,VWS V14.00,2013-04-09 18:46:00,
2013-04-09 13:51:00,76.8,57.3,29.76,SW,223,27.0,33.0,51,0.00,,---,0.00,VWS V14.00,2013-04-09 18:51:00,
2013-04-09 13:56:00,76.7,57.8,29.76,SW,225,23.0,28.0,52,0.00,,---,0.00,VWS V14.00,2013-04-09 18:56:00,
2013-04-09 14:01:00,77.2,57.7,29.76,SSW,209,31.0,33.0,51,0.00,,---,0.00,VWS V14.00,2013-04-09 19:01:00,
2013-04-09 14:06:00,77.4,57.9,29.76,SSW,204,28.0,28.0,51,0.00,,---,0.00,VWS V14.00,2013-04-09 19:06:00,
2013-04-09 14:11:00,77.4,57.9,29.76,SW,219,24.0,28.0,51,0.00,,---,0.00,VWS V14.00,2013-04-09 19:11:00,
2013-04-09 14:16:00,76.7,57.2,29.76,SW,214,24.0,32.0,51,0.00,,---,0.00,VWS V14.00,2013-04-09 19:16:00,
2013-04-09 14:21:00,77.0,57.5,29.76,SW,223,23.0,27.0,51,0.00,,---,0.00,VWS V14.00,2013-04-09 19:21:00,
2013-04-09 14:26:00,77.2,57.7,29.76,SW,225,24.0,24.0,51,0.00,,---,0.00,VWS V14.00,2013-04-09 19:26:00,
2013-04-09 14:32:00,76.8,57.9,29.76,SSW,199,29.0,29.0,52,0.00,,---,0.00,VWS V14.00,2013-04-09 19:32:00,
2013-04-09 14:37:00,77.4,57.9,29.76,SW,228,20.0,31.0,51,0.00,,---,0.00,VWS V14.00,2013-04-09 19:37:00,
2013-04-09 14:42:00,77.6,58.1,29.76,SW,228,25.0,27.0,51,0.00,,---,0.00,VWS V14.00,2013-04-09 19:42:00,
2013-04-09 14:47:00,77.0,58.0,29.76,SSW,213,23.0,27.0,52,0.00,,---,0.00,VWS V14.00,2013-04-09 19:47:00,
2013-04-09 14:52:00,76.8,57.9,29.76,SW,230,27.0,27.0,52,0.00,,---,0.00,VWS V14.00,2013-04-09 19:52:00,
2013-04-09 14:58:00,77.2,58.2,29.76,SW,223,22.0,27.0,52,0.00,,---,0.00,VWS V14.00,2013-04-09 19:58:00,
2013-04-09 15:03:00,78.1,58.0,29.75,SW,223,22.0,25.0,50,0.00,,---,0.00,VWS V14.00,2013-04-09 20:03:00,
2013-04-09 15:08:00,77.2,58.2,29.75,WSW,242,19.0,22.0,52,0.00,,---,0.00,VWS V14.00,2013-04-09 20:08:00,
2013-04-09 15:13:00,77.0,58.0,29.75,SW,223,20.0,23.0,52,0.00,,---,0.00,VWS V14.00,2013-04-09 20:13:00,
2013-04-09 15:18:00,76.8,57.3,29.75,South,190,20.0,31.0,51,0.00,,---,0.00,VWS V14.00,2013-04-09 20:18:00,
2013-04-09 15:23:00,77.0,58.0,29.75,SW,225,17.0,22.0,52,0.00,,---,0.00,VWS V14.00,2013-04-09 20:23:00,
2013-04-09 15:28:00,76.7,58.3,29.75,SSW,202,26.0,29.0,53,0.00,,---,0.00,VWS V14.00,2013-04-09 20:28:00,
2013-04-09 15:33:00,76.7,57.8,29.75,SSW,203,21.0,22.0,52,0.00,,---,0.00,VWS V14.00,2013-04-09 20:33:00,
2013-04-09 15:38:00,77.0,59.1,29.75,SSW,201,22.0,24.0,54,0.00,,---,0.00,VWS V14.00,2013-04-09 20:38:00,
2013-04-09 15:43:00,76.3,57.9,29.75,SW,214,14.0,22.0,53,0.00,,---,0.00,VWS V14.00,2013-04-09 20:43:00,
2013-04-09 15:48:00,76.3,57.9,29.75,SW,217,17.0,17.0,53,0.00,,---,0.00,VWS V14.00,2013-04-09 20:48:00,
2013-04-09 15:53:00,75.1,58.3,29.75,SW,215,17.0,25.0,56,0.00,,---,0.00,VWS V14.00,2013-04-09 20:53:00,
2013-04-09 15:58:00,74.6,58.9,29.75,SSW,192,28.0,28.0,58,0.00,,---,0.00,VWS V14.00,2013-04-09 20:58:00,
2013-04-09 16:03:00,74.4,59.2,29.76,SSW,205,17.0,21.0,59,0.00,,---,0.00,VWS V14.00,2013-04-09 21:03:00,
2013-04-09 16:08:00,74.6,58.9,29.76,SSW,198,21.0,27.0,58,0.00,,---,0.00,VWS V14.00,2013-04-09 21:08:00,
2013-04-09 16:13:00,74.6,59.3,29.76,SSW,211,17.0,24.0,59,0.00,,---,0.00,VWS V14.00,2013-04-09 21:13:00,
2013-04-09 16:19:00,74.2,60.4,29.76,SSW,211,19.0,26.0,62,0.00,,---,0.00,VWS V14.00,2013-04-09 21:19:00,
2013-04-09 16:24:00,74.2,59.0,29.76,SSW,209,18.0,23.0,59,0.00,,---,0.00,VWS V14.00,2013-04-09 21:24:00,
2013-04-09 16:29:00,75.1,59.3,29.76,SW,220,22.0,27.0,58,0.00,,---,0.00,VWS V14.00,2013-04-09 21:29:00,
2013-04-09 16:34:00,75.1,59.3,29.76,SSW,209,21.0,24.0,58,0.00,,---,0.00,VWS V14.00,2013-04-09 21:34:00,
2013-04-09 16:39:00,75.1,59.3,29.76,SSW,209,21.0,21.0,58,0.00,,---,0.00,VWS V14.00,2013-04-09 21:39:00,
2013-04-09 16:44:00,74.9,59.1,29.76,SW,226,17.0,24.0,58,0.00,,---,0.00,VWS V14.00,2013-04-09 21:44:00,
2013-04-09 16:49:00,74.9,59.1,29.77,SSW,209,15.0,23.0,58,0.00,,---,0.00,VWS V14.00,2013-04-09 21:49:00,
2013-04-09 16:55:00,74.6,59.3,29.77,SSW,210,18.0,26.0,59,0.00,,---,0.00,VWS V14.00,2013-04-09 21:55:00,
2013-04-09 17:00:00,73.9,58.7,29.77,SSW,202,20.0,24.0,59,0.00,,---,0.00,VWS V14.00,2013-04-09 22:00:00,
2013-04-09 17:05:00,74.0,58.8,29.77,SW,216,22.0,29.0,59,0.00,,---,0.00,VWS V14.00,2013-04-09 22:05:00,
2013-04-09 17:10:00,74.2,59.0,29.77,SW,216,22.0,25.0,59,0.00,,---,0.00,VWS V14.00,2013-04-09 22:10:00,
2013-04-09 17:15:00,74.4,59.2,29.77,SSW,211,14.0,22.0,59,0.00,,---,0.00,VWS V14.00,2013-04-09 22:15:00,
2013-04-09 17:20:00,74.0,59.2,29.77,SW,216,17.0,19.0,60,0.00,,---,0.00,VWS V14.00,2013-04-09 22:20:00,
2013-04-09 17:25:00,73.7,59.0,29.77,SW,230,12.0,16.0,60,0.00,,---,0.00,VWS V14.00,2013-04-09 22:25:00,
2013-04-09 17:30:00,73.7,59.0,29.78,SSW,211,11.0,11.0,60,0.00,,---,0.00,VWS V14.00,2013-04-09 22:30:00,
2013-04-09 17:35:00,73.7,59.0,29.78,SSW,210,10.0,10.0,60,0.00,,---,0.00,VWS V14.00,2013-04-09 22:35:00,
2013-04-09 17:40:00,73.7,59.0,29.78,SW,229,14.0,18.0,60,0.00,,---,0.00,VWS V14.00,2013-04-09 22:40:00,
2013-04-09 17:46:00,73.5,58.8,29.78,SW,218,13.0,16.0,60,0.00,,---,0.00,VWS V14.00,2013-04-09 22:46:00,
2013-04-09 17:51:00,73.7,59.0,29.78,SSW,211,8.0,13.0,60,0.00,,---,0.00,VWS V14.00,2013-04-09 22:51:00,
2013-04-09 17:56:00,74.0,59.2,29.78,SSW,209,10.0,13.0,60,0.00,,---,0.00,VWS V14.00,2013-04-09 22:56:00,
2013-04-09 18:01:00,74.0,59.2,29.77,SW,219,11.0,14.0,60,0.00,,---,0.00,VWS V14.00,2013-04-09 23:01:00,
2013-04-09 18:06:00,74.2,59.0,29.77,SSW,195,15.0,15.0,59,0.00,,---,0.00,VWS V14.00,2013-04-09 23:06:00,
2013-04-09 18:11:00,74.2,59.0,29.77,SW,230,15.0,17.0,59,0.00,,---,0.00,VWS V14.00,2013-04-09 23:11:00,
2013-04-09 18:17:00,74.0,59.2,29.77,SW,224,10.0,16.0,60,0.00,,---,0.00,VWS V14.00,2013-04-09 23:17:00,
2013-04-09 18:22:00,74.0,59.2,29.77,SW,223,11.0,13.0,60,0.00,,---,0.00,VWS V14.00,2013-04-09 23:22:00,
2013-04-09 18:27:00,74.0,59.2,29.77,SSW,211,13.0,14.0,60,0.00,,---,0.00,VWS V14.00,2013-04-09 23:27:00,
2013-04-09 18:32:00,73.9,59.2,29.77,SSW,205,11.0,12.0,60,0.00,,---,0.00,VWS V14.00,2013-04-09 23:32:00,
2013-04-09 18:37:00,73.7,59.0,29.77,SSW,205,11.0,16.0,60,0.00,,---,0.00,VWS V14.00,2013-04-09 23:37:00,
2013-04-09 18:42:00,73.5,58.8,29.77,SSW,198,18.0,18.0,60,0.00,,---,0.00,VWS V14.00,2013-04-09 23:42:00,
2013-04-09 18:47:00,73.2,58.5,29.78,SSW,200,9.0,12.0,60,0.00,,---,0.00,VWS V14.00,2013-04-09 23:47:00,
2013-04-09 18:52:00,72.8,58.6,29.78,SSW,201,9.0,13.0,61,0.00,,---,0.00,VWS V14.00,2013-04-09 23:52:00,
2013-04-09 18:57:00,72.5,58.8,29.78,SSW,204,7.0,10.0,62,0.00,,---,0.00,VWS V14.00,2013-04-09 23:57:00,
2013-04-09 19:02:00,72.1,58.4,29.78,SSW,202,5.0,10.0,62,0.00,,---,0.00,VWS V14.00,2013-04-10 00:02:00,
2013-04-09 19:07:00,71.8,59.0,29.78,SSW,202,5.0,10.0,64,0.00,,---,0.00,VWS V14.00,2013-04-10 00:07:00,
2013-04-09 19:12:00,71.5,58.7,29.78,SSW,202,5.0,6.0,64,0.00,,---,0.00,VWS V14.00,2013-04-10 00:12:00,
2013-04-09 19:17:00,70.9,58.1,29.79,SSW,202,3.0,5.0,64,0.00,,---,0.00,VWS V14.00,2013-04-10 00:17:00,
2013-04-09 19:24:00,70.4,58.1,29.79,SSW,202,2.0,4.0,65,0.00,,---,0.00,VWS V14.00,2013-04-10 00:24:00,
2013-04-09 19:29:00,70.1,58.2,29.79,SSW,202,2.0,3.0,66,0.00,,---,0.00,VWS V14.00,2013-04-10 00:29:00,
2013-04-09 19:34:00,69.8,58.4,29.79,SSW,202,3.0,3.0,67,0.00,,---,0.00,VWS V14.00,2013-04-10 00:34:00,
2013-04-09 19:39:00,69.3,57.9,29.79,SSW,202,2.0,3.0,67,0.00,,---,0.00,VWS V14.00,2013-04-10 00:39:00,
2013-04-09 19:44:00,68.8,57.8,29.79,SSW,202,3.0,4.0,68,0.00,,---,0.00,VWS V14.00,2013-04-10 00:44:00,
2013-04-09 19:49:00,68.8,58.2,29.79,SSW,202,4.0,6.0,69,0.00,,---,0.00,VWS V14.00,2013-04-10 00:49:00,
2013-04-09 19:54:00,68.9,58.3,29.79,SSW,200,3.0,4.0,69,0.00,,---,0.00,VWS V14.00,2013-04-10 00:54:00,
2013-04-09 19:59:00,68.9,58.3,29.79,SSW,200,5.0,5.0,69,0.00,,---,0.00,VWS V14.00,2013-04-10 00:59:00,
2013-04-09 20:04:00,68.9,58.3,29.79,SSW,198,5.0,5.0,69,0.00,,---,0.00,VWS V14.00,2013-04-10 01:04:00,
2013-04-09 20:09:00,68.8,58.2,29.79,SSW,198,3.0,4.0,69,0.00,,---,0.00,VWS V14.00,2013-04-10 01:09:00,
2013-04-09 20:14:00,68.4,58.2,29.79,SSW,198,3.0,4.0,70,0.00,,---,0.00,VWS V14.00,2013-04-10 01:14:00,
2013-04-09 20:19:00,67.8,57.3,29.79,SSW,198,2.0,2.0,69,0.00,,---,0.00,VWS V14.00,2013-04-10 01:19:00,
2013-04-09 20:24:00,66.9,56.8,29.79,SSW,198,2.0,3.0,70,0.00,,---,0.00,VWS V14.00,2013-04-10 01:24:00,
2013-04-09 20:29:00,65.8,56.2,29.79,SSW,198,2.0,3.0,71,0.00,,---,0.00,VWS V14.00,2013-04-10 01:29:00,
2013-04-09 20:34:00,64.7,55.9,29.79,SSW,198,4.0,4.0,73,0.00,,---,0.00,VWS V14.00,2013-04-10 01:34:00,
2013-04-09 20:40:00,64.5,56.0,29.79,SSW,198,3.0,4.0,74,0.00,,---,0.00,VWS V14.00,2013-04-10 01:40:00,
2013-04-09 20:45:00,64.0,55.9,29.79,SSW,198,2.0,3.0,75,0.00,,---,0.00,VWS V14.00,2013-04-10 01:45:00,
2013-04-09 20:50:00,63.5,55.8,29.79,SSW,198,2.0,3.0,76,0.00,,---,0.00,VWS V14.00,2013-04-10 01:50:00,
2013-04-09 20:55:00,63.2,55.9,29.79,SSW,198,2.0,3.0,77,0.00,,---,0.00,VWS V14.00,2013-04-10 01:55:00,
2013-04-09 21:00:00,63.1,56.1,29.79,SSW,198,3.0,3.0,78,0.00,,---,0.00,VWS V14.00,2013-04-10 02:00:00,
2013-04-09 21:05:00,62.9,55.9,29.80,SSW,198,0.0,1.0,78,0.00,,---,0.00,VWS V14.00,2013-04-10 02:05:00,
2013-04-09 21:10:00,62.7,56.1,29.80,SSW,198,2.0,2.0,79,0.00,,---,0.00,VWS V14.00,2013-04-10 02:10:00,
2013-04-09 21:15:00,62.6,56.0,29.80,SSW,198,1.0,2.0,79,0.00,,---,0.00,VWS V14.00,2013-04-10 02:15:00,
2013-04-09 21:20:00,62.4,56.2,29.80,SSW,198,3.0,4.0,80,0.00,,---,0.00,VWS V14.00,2013-04-10 02:20:00,
2013-04-09 21:25:00,62.4,56.5,29.80,SSW,198,1.0,3.0,81,0.00,,---,0.00,VWS V14.00,2013-04-10 02:25:00,
2013-04-09 21:30:00,62.3,56.4,29.80,SSW,198,2.0,3.0,81,0.00,,---,0.00,VWS V14.00,2013-04-10 02:30:00,
2013-04-09 21:35:00,62.1,56.2,29.80,SSW,198,2.0,3.0,81,0.00,,---,0.00,VWS V14.00,2013-04-10 02:35:00,
2013-04-09 21:40:00,62.0,56.1,29.80,SSW,198,2.0,3.0,81,0.00,,---,0.00,VWS V14.00,2013-04-10 02:40:00,
2013-04-09 21:45:00,62.0,56.1,29.80,SSW,198,0.0,0.0,81,0.00,,---,0.00,VWS V14.00,2013-04-10 02:45:00,
2013-04-09 21:50:00,62.0,56.5,29.80,SSW,198,0.0,0.0,82,0.00,,---,0.00,VWS V14.00,2013-04-10 02:50:00,
2013-04-09 21:55:00,62.0,56.5,29.80,SSW,198,0.0,0.0,82,0.00,,---,0.00,VWS V14.00,2013-04-10 02:55:00,
2013-04-09 22:00:00,62.1,56.9,29.81,SSW,198,0.0,0.0,83,0.00,,---,0.00,VWS V14.00,2013-04-10 03:00:00,
2013-04-09 22:05:00,62.1,56.9,29.81,SSW,198,0.0,0.0,83,0.00,,---,0.00,VWS V14.00,2013-04-10 03:05:00,
2013-04-09 22:11:00,62.1,56.9,29.81,SSW,198,0.0,0.0,83,0.00,,---,0.00,VWS V14.00,2013-04-10 03:11:00,
2013-04-09 22:16:00,62.3,57.1,29.80,SSW,198,0.0,0.0,83,0.00,,---,0.00,VWS V14.00,2013-04-10 03:16:00,
2013-04-09 22:21:00,62.6,57.4,29.80,SSW,198,1.0,2.0,83,0.00,,---,0.00,VWS V14.00,2013-04-10 03:21:00,
2013-04-09 22:26:00,62.7,57.5,29.80,SSW,198,2.0,3.0,83,0.00,,---,0.00,VWS V14.00,2013-04-10 03:26:00,
2013-04-09 22:31:00,62.7,57.5,29.79,SSW,198,3.0,3.0,83,0.00,,---,0.00,VWS V14.00,2013-04-10 03:31:00,
2013-04-09 22:36:00,63.1,57.9,29.79,SSW,198,3.0,4.0,83,0.00,,---,0.00,VWS V14.00,2013-04-10 03:36:00,
2013-04-09 22:41:00,63.5,57.9,29.79,SSW,198,1.0,3.0,82,0.00,,---,0.00,VWS V14.00,2013-04-10 03:41:00,
2013-04-09 22:46:00,63.7,58.1,29.80,SSW,198,2.0,3.0,82,0.00,,---,0.00,VWS V14.00,2013-04-10 03:46:00,
2013-04-09 22:51:00,63.7,58.1,29.80,SSW,198,2.0,3.0,82,0.00,,---,0.00,VWS V14.00,2013-04-10 03:51:00,
2013-04-09 22:56:00,63.7,57.8,29.80,SSW,198,2.0,3.0,81,0.00,,---,0.00,VWS V14.00,2013-04-10 03:56:00,
2013-04-09 23:00:00,63.7,57.8,29.79,SSW,198,2.0,3.0,81,0.00,,---,0.00,VWS V14.00,2013-04-10 04:00:00,
2013-04-09 23:05:00,63.5,57.9,29.79,SSW,198,2.0,2.0,82,0.00,,---,0.00,VWS V14.00,2013-04-10 04:05:00,
2013-04-09 23:10:00,63.7,58.1,29.79,SSW,198,3.0,4.0,82,0.00,,---,0.00,VWS V14.00,2013-04-10 04:10:00,
2013-04-09 23:15:00,63.7,58.1,29.79,SSW,198,3.0,4.0,82,0.00,,---,0.00,VWS V14.00,2013-04-10 04:15:00,
2013-04-09 23:21:00,63.9,58.6,29.79,SSW,198,3.0,4.0,83,0.00,,---,0.00,VWS V14.00,2013-04-10 04:21:00,
2013-04-09 23:26:00,63.9,58.6,29.79,SSW,198,5.0,5.0,83,0.00,,---,0.00,VWS V14.00,2013-04-10 04:26:00,
2013-04-09 23:31:00,63.9,58.6,29.78,SSW,198,4.0,5.0,83,0.00,,---,0.00,VWS V14.00,2013-04-10 04:31:00,
2013-04-09 23:36:00,63.9,58.6,29.78,SSW,198,5.0,6.0,83,0.00,,---,0.00,VWS V14.00,2013-04-10 04:36:00,
2013-04-09 23:41:00,63.9,58.6,29.78,SSW,198,5.0,5.0,83,0.00,,---,0.00,VWS V14.00,2013-04-10 04:41:00,
2013-04-09 23:46:00,64.0,58.7,29.77,SSW,198,5.0,6.0,83,0.00,,---,0.00,VWS V14.00,2013-04-10 04:46:00,
2013-04-09 23:52:00,64.2,58.9,29.77,SSW,196,4.0,6.0,83,0.00,,---,0.00,VWS V14.00,2013-04-10 04:52:00,
2013-04-09 23:57:00,64.3,59.0,29.77,South,187,6.0,7.0,83,0.00,,---,0.00,VWS V14.00,2013-04-10 04:57:00,